sensor_id;sensor_type;location;lat;lon;timestamp;pressure;altitude;pressure_sealevel;temperature;humidity
55032;BME280;40928;51.076;7.950;2023-06-14T00:01:24;96921.91;;;12.59;76.80
55032;BME280;40928;51.076;7.950;2023-06-14T00:03:50;96916.81;;;12.57;76.90
55032;BME280;40928;51.076;7.950;2023-06-14T00:06:16;96914.09;;;12.52;77.08
55032;BME280;40928;51.076;7.950;2023-06-14T00:08:42;96911.34;;;12.47;76.91
55032;BME280;40928;51.076;7.950;2023-06-14T00:11:08;96911.56;;;12.40;77.30
55032;BME280;40928;51.076;7.950;2023-06-14T00:13:33;96915.00;;;12.36;77.24
55032;BME280;40928;51.076;7.950;2023-06-14T00:15:59;96916.03;;;12.29;77.92
55032;BME280;40928;51.076;7.950;2023-06-14T00:18:24;96914.41;;;12.28;77.56
55032;BME280;40928;51.076;7.950;2023-06-14T00:20:50;96913.00;;;12.21;77.92
55032;BME280;40928;51.076;7.950;2023-06-14T00:23:17;96911.56;;;12.13;78.37
55032;BME280;40928;51.076;7.950;2023-06-14T00:25:42;96917.78;;;12.18;78.03
55032;BME280;40928;51.076;7.950;2023-06-14T00:28:08;96910.00;;;12.17;78.11
55032;BME280;40928;51.076;7.950;2023-06-14T00:30:34;96908.94;;;12.18;78.09
55032;BME280;40928;51.076;7.950;2023-06-14T00:33:01;96915.06;;;12.13;78.47
55032;BME280;40928;51.076;7.950;2023-06-14T00:35:27;96916.09;;;12.12;78.52
55032;BME280;40928;51.076;7.950;2023-06-14T00:37:52;96918.00;;;12.12;78.48
55032;BME280;40928;51.076;7.950;2023-06-14T00:40:20;96917.44;;;12.10;78.72
55032;BME280;40928;51.076;7.950;2023-06-14T00:42:45;96921.97;;;12.09;79.28
55032;BME280;40928;51.076;7.950;2023-06-14T00:45:11;96925.88;;;12.01;79.17
55032;BME280;40928;51.076;7.950;2023-06-14T00:47:38;96921.34;;;12.02;78.87
55032;BME280;40928;51.076;7.950;2023-06-14T00:50:06;96921.66;;;12.06;79.27
55032;BME280;40928;51.076;7.950;2023-06-14T00:52:32;96923.84;;;12.09;79.09
55032;BME280;40928;51.076;7.950;2023-06-14T00:54:58;96916.59;;;12.09;78.96
55032;BME280;40928;51.076;7.950;2023-06-14T00:57:24;96917.44;;;12.10;78.93
55032;BME280;40928;51.076;7.950;2023-06-14T00:59:49;96919.53;;;12.08;79.22
55032;BME280;40928;51.076;7.950;2023-06-14T01:02:16;96931.56;;;12.05;79.39
55032;BME280;40928;51.076;7.950;2023-06-14T01:04:46;96932.66;;;12.09;79.20
55032;BME280;40928;51.076;7.950;2023-06-14T01:07:36;96931.31;;;12.07;79.42
55032;BME280;40928;51.076;7.950;2023-06-14T01:15:10;96932.28;;;12.00;79.02
55032;BME280;40928;51.076;7.950;2023-06-14T01:17:39;96933.28;;;11.94;79.78
55032;BME280;40928;51.076;7.950;2023-06-14T01:20:10;96934.03;;;11.90;79.65
55032;BME280;40928;51.076;7.950;2023-06-14T01:22:54;96932.16;;;11.90;79.52
55032;BME280;40928;51.076;7.950;2023-06-14T01:25:20;96938.56;;;11.89;79.38
55032;BME280;40928;51.076;7.950;2023-06-14T01:28:06;96938.56;;;11.89;79.35
55032;BME280;40928;51.076;7.950;2023-06-14T01:30:41;96937.44;;;11.85;79.72
55032;BME280;40928;51.076;7.950;2023-06-14T01:33:24;96938.56;;;11.89;79.36
55032;BME280;40928;51.076;7.950;2023-06-14T01:35:52;96938.56;;;11.89;79.33
55032;BME280;40928;51.076;7.950;2023-06-14T01:38:20;96937.44;;;11.85;79.41
55032;BME280;40928;51.076;7.950;2023-06-14T01:40:48;96936.81;;;11.78;79.36
55032;BME280;40928;51.076;7.950;2023-06-14T01:43:14;96928.13;;;11.65;80.34
55032;BME280;40928;51.076;7.950;2023-06-14T01:45:42;96945.22;;;11.64;80.53
55032;BME280;40928;51.076;7.950;2023-06-14T01:48:08;96943.59;;;11.63;80.59
55032;BME280;40928;51.076;7.950;2023-06-14T01:50:34;96933.13;;;11.62;80.31
55032;BME280;40928;51.076;7.950;2023-06-14T01:53:00;96947.06;;;11.64;80.66
55032;BME280;40928;51.076;7.950;2023-06-14T01:55:26;96944.09;;;11.60;80.80
55032;BME280;40928;51.076;7.950;2023-06-14T01:57:52;96941.97;;;11.62;80.54
55032;BME280;40928;51.076;7.950;2023-06-14T02:00:18;96931.78;;;11.59;80.62
55032;BME280;40928;51.076;7.950;2023-06-14T02:02:44;96930.44;;;11.62;80.93
55032;BME280;40928;51.076;7.950;2023-06-14T02:05:11;96930.22;;;11.63;80.75
55032;BME280;40928;51.076;7.950;2023-06-14T02:07:37;96926.41;;;11.59;80.59
55032;BME280;40928;51.076;7.950;2023-06-14T02:10:04;96925.38;;;11.60;81.07
55032;BME280;40928;51.076;7.950;2023-06-14T02:16:17;96927.91;;;11.50;81.66
55032;BME280;40928;51.076;7.950;2023-06-14T02:18:42;96927.03;;;11.44;81.87
55032;BME280;40928;51.076;7.950;2023-06-14T02:21:09;96924.03;;;11.40;82.12
55032;BME280;40928;51.076;7.950;2023-06-14T02:23:35;96927.84;;;11.45;81.92
55032;BME280;40928;51.076;7.950;2023-06-14T02:26:00;96929.72;;;11.44;81.92
55032;BME280;40928;51.076;7.950;2023-06-14T02:28:26;96923.22;;;11.40;82.04
55032;BME280;40928;51.076;7.950;2023-06-14T02:30:52;96921.34;;;11.40;82.73
55032;BME280;40928;51.076;7.950;2023-06-14T02:33:17;96913.81;;;11.37;82.55
55032;BME280;40928;51.076;7.950;2023-06-14T02:35:43;96922.41;;;11.39;82.57
55032;BME280;40928;51.076;7.950;2023-06-14T02:38:09;96934.41;;;11.37;82.42
55032;BME280;40928;51.076;7.950;2023-06-14T02:40:34;96929.25;;;11.30;82.71
55032;BME280;40928;51.076;7.950;2023-06-14T02:43:00;96929.72;;;11.27;82.67
55032;BME280;40928;51.076;7.950;2023-06-14T02:45:25;96918.91;;;11.17;82.88
55032;BME280;40928;51.076;7.950;2023-06-14T02:47:51;96930.72;;;11.21;83.25
55032;BME280;40928;51.076;7.950;2023-06-14T02:50:16;96932.56;;;11.20;83.39
55032;BME280;40928;51.076;7.950;2023-06-14T02:52:42;96929.09;;;11.20;83.29
55032;BME280;40928;51.076;7.950;2023-06-14T02:55:10;96934.94;;;11.17;83.47
55032;BME280;40928;51.076;7.950;2023-06-14T02:57:35;96936.56;;;11.18;83.37
55032;BME280;40928;51.076;7.950;2023-06-14T03:00:02;96937.59;;;11.17;82.99
55032;BME280;40928;51.076;7.950;2023-06-14T03:02:30;96943.19;;;11.15;83.35
55032;BME280;40928;51.076;7.950;2023-06-14T03:04:56;96943.69;;;11.12;83.39
55032;BME280;40928;51.076;7.950;2023-06-14T03:07:28;96940.69;;;11.08;83.60
55032;BME280;40928;51.076;7.950;2023-06-14T03:09:58;96944.91;;;11.04;83.98
55032;BME280;40928;51.076;7.950;2023-06-14T03:12:24;96947.00;;;11.02;83.91
55032;BME280;40928;51.076;7.950;2023-06-14T03:14:50;96947.97;;;10.96;84.08
55032;BME280;40928;51.076;7.950;2023-06-14T03:17:19;96947.88;;;10.91;84.13
55032;BME280;40928;51.076;7.950;2023-06-14T03:19:45;96958.03;;;10.89;84.36
55032;BME280;40928;51.076;7.950;2023-06-14T03:22:12;96952.69;;;10.89;84.54
55032;BME280;40928;51.076;7.950;2023-06-14T03:24:39;96962.22;;;10.85;84.87
55032;BME280;40928;51.076;7.950;2023-06-14T03:27:10;96962.44;;;10.83;84.94
55032;BME280;40928;51.076;7.950;2023-06-14T03:29:41;96967.00;;;10.82;84.90
55032;BME280;40928;51.076;7.950;2023-06-14T03:32:08;96972.00;;;10.79;85.14
55032;BME280;40928;51.076;7.950;2023-06-14T03:34:43;96973.28;;;10.76;85.47
55032;BME280;40928;51.076;7.950;2023-06-14T03:37:15;96972.75;;;10.74;85.49
55032;BME280;40928;51.076;7.950;2023-06-14T03:39:41;96970.63;;;10.76;85.45
55032;BME280;40928;51.076;7.950;2023-06-14T03:42:15;96979.19;;;10.78;85.26
55032;BME280;40928;51.076;7.950;2023-06-14T03:44:42;96988.50;;;10.76;85.41
55032;BME280;40928;51.076;7.950;2023-06-14T03:47:07;96990.63;;;10.74;85.78
55032;BME280;40928;51.076;7.950;2023-06-14T03:49:33;96987.94;;;10.74;85.49
55032;BME280;40928;51.076;7.950;2023-06-14T03:51:59;96998.31;;;10.70;85.82
55032;BME280;40928;51.076;7.950;2023-06-14T03:54:25;96991.81;;;10.66;85.69
55032;BME280;40928;51.076;7.950;2023-06-14T03:56:53;96997.97;;;10.66;85.64
55032;BME280;40928;51.076;7.950;2023-06-14T03:59:18;97008.41;;;10.68;85.43
55032;BME280;40928;51.076;7.950;2023-06-14T04:01:44;97009.47;;;10.67;85.45
55032;BME280;40928;51.076;7.950;2023-06-14T04:04:13;97012.69;;;10.69;85.37
55032;BME280;40928;51.076;7.950;2023-06-14T04:06:42;97018.28;;;10.68;85.51
55032;BME280;40928;51.076;7.950;2023-06-14T04:09:09;97013.19;;;10.66;85.84
55032;BME280;40928;51.076;7.950;2023-06-14T04:11:34;97015.75;;;10.61;86.05
55032;BME280;40928;51.076;7.950;2023-06-14T04:14:01;97013.66;;;10.63;86.14
55032;BME280;40928;51.076;7.950;2023-06-14T04:16:28;97021.28;;;10.71;85.81
55032;BME280;40928;51.076;7.950;2023-06-14T04:18:55;97025.66;;;10.77;86.06
55032;BME280;40928;51.076;7.950;2023-06-14T04:21:22;97027.06;;;10.80;86.34
55032;BME280;40928;51.076;7.950;2023-06-14T04:23:50;97032.47;;;10.85;86.08
55032;BME280;40928;51.076;7.950;2023-06-14T04:26:21;97034.19;;;10.91;85.57
55032;BME280;40928;51.076;7.950;2023-06-14T04:28:50;97033.94;;;10.93;85.87
55032;BME280;40928;51.076;7.950;2023-06-14T04:31:17;97028.19;;;10.84;86.86
55032;BME280;40928;51.076;7.950;2023-06-14T04:33:43;97030.69;;;10.91;86.66
55032;BME280;40928;51.076;7.950;2023-06-14T04:36:12;97034.63;;;11.00;86.11
55032;BME280;40928;51.076;7.950;2023-06-14T04:38:39;97038.75;;;11.08;86.19
55032;BME280;40928;51.076;7.950;2023-06-14T04:41:07;97038.59;;;11.15;86.44
55032;BME280;40928;51.076;7.950;2023-06-14T04:43:37;97038.44;;;11.21;86.58
55032;BME280;40928;51.076;7.950;2023-06-14T04:46:05;97031.88;;;11.29;86.45
55032;BME280;40928;51.076;7.950;2023-06-14T04:48:31;97031.97;;;11.34;86.56
55032;BME280;40928;51.076;7.950;2023-06-14T04:50:57;97035.28;;;11.41;86.44
55032;BME280;40928;51.076;7.950;2023-06-14T04:53:23;97034.78;;;11.45;86.42
55032;BME280;40928;51.076;7.950;2023-06-14T04:55:50;97030.59;;;11.49;86.48
55032;BME280;40928;51.076;7.950;2023-06-14T04:58:18;97035.75;;;11.55;86.33
55032;BME280;40928;51.076;7.950;2023-06-14T05:00:44;97032.66;;;11.64;86.11
55032;BME280;40928;51.076;7.950;2023-06-14T05:03:10;97036.56;;;11.73;86.29
55032;BME280;40928;51.076;7.950;2023-06-14T05:05:40;97039.63;;;11.82;86.19
55032;BME280;40928;51.076;7.950;2023-06-14T05:08:09;97034.88;;;11.89;86.66
55032;BME280;40928;51.076;7.950;2023-06-14T05:10:35;97036.81;;;11.94;86.67
55032;BME280;40928;51.076;7.950;2023-06-14T05:13:01;97035.03;;;11.99;87.05
55032;BME280;40928;51.076;7.950;2023-06-14T05:15:27;97034.63;;;12.08;86.64
55032;BME280;40928;51.076;7.950;2023-06-14T05:17:54;97032.81;;;12.13;86.59
55032;BME280;40928;51.076;7.950;2023-06-14T05:20:24;97030.25;;;12.24;86.42
55032;BME280;40928;51.076;7.950;2023-06-14T05:22:53;97037.63;;;12.33;86.05
55032;BME280;40928;51.076;7.950;2023-06-14T05:25:20;97036.69;;;12.45;85.42
55032;BME280;40928;51.076;7.950;2023-06-14T05:27:46;97034.41;;;12.59;85.03
55032;BME280;40928;51.076;7.950;2023-06-14T05:30:13;97036.47;;;12.74;83.07
55032;BME280;40928;51.076;7.950;2023-06-14T05:32:39;97037.97;;;12.92;82.38
55032;BME280;40928;51.076;7.950;2023-06-14T05:35:05;97041.09;;;13.11;80.55
55032;BME280;40928;51.076;7.950;2023-06-14T05:37:32;97039.59;;;13.25;79.32
55032;BME280;40928;51.076;7.950;2023-06-14T05:39:57;97036.00;;;13.42;76.95
55032;BME280;40928;51.076;7.950;2023-06-14T05:42:23;97046.84;;;13.58;76.28
55032;BME280;40928;51.076;7.950;2023-06-14T05:44:56;97045.34;;;13.72;75.74
55032;BME280;40928;51.076;7.950;2023-06-14T05:47:21;97038.69;;;13.80;73.51
55032;BME280;40928;51.076;7.950;2023-06-14T05:49:49;97039.31;;;13.92;73.48
55032;BME280;40928;51.076;7.950;2023-06-14T05:52:16;97041.78;;;14.04;72.49
55032;BME280;40928;51.076;7.950;2023-06-14T05:54:41;97044.53;;;14.14;71.89
55032;BME280;40928;51.076;7.950;2023-06-14T05:57:08;97042.44;;;14.27;70.82
55032;BME280;40928;51.076;7.950;2023-06-14T05:59:34;97041.66;;;14.37;70.36
55032;BME280;40928;51.076;7.950;2023-06-14T06:01:59;97044.66;;;14.45;69.20
55032;BME280;40928;51.076;7.950;2023-06-14T06:04:25;97047.38;;;14.61;67.34
55032;BME280;40928;51.076;7.950;2023-06-14T06:06:51;97047.16;;;14.73;66.39
55032;BME280;40928;51.076;7.950;2023-06-14T06:09:16;97052.31;;;14.85;65.56
55032;BME280;40928;51.076;7.950;2023-06-14T06:11:42;97042.09;;;14.87;65.51
55032;BME280;40928;51.076;7.950;2023-06-14T06:14:07;97048.03;;;14.99;64.31
55032;BME280;40928;51.076;7.950;2023-06-14T06:16:33;97053.97;;;15.06;64.55
55032;BME280;40928;51.076;7.950;2023-06-14T06:18:58;97049.41;;;15.12;64.65
55032;BME280;40928;51.076;7.950;2023-06-14T06:21:25;97046.97;;;15.16;64.51
55032;BME280;40928;51.076;7.950;2023-06-14T06:23:50;97045.91;;;15.22;64.22
55032;BME280;40928;51.076;7.950;2023-06-14T06:26:16;97051.03;;;15.29;64.01
55032;BME280;40928;51.076;7.950;2023-06-14T06:28:41;97058.28;;;15.38;62.60
55032;BME280;40928;51.076;7.950;2023-06-14T06:31:07;97053.97;;;15.48;62.31
55032;BME280;40928;51.076;7.950;2023-06-14T06:33:32;97053.44;;;15.61;62.15
55032;BME280;40928;51.076;7.950;2023-06-14T06:35:58;97056.38;;;15.70;61.58
55032;BME280;40928;51.076;7.950;2023-06-14T06:38:23;97063.09;;;15.78;61.03
55032;BME280;40928;51.076;7.950;2023-06-14T06:40:49;97063.66;;;15.80;61.39
55032;BME280;40928;51.076;7.950;2023-06-14T06:43:15;97059.63;;;15.88;60.51
55032;BME280;40928;51.076;7.950;2023-06-14T06:45:45;97057.72;;;15.93;59.65
55032;BME280;40928;51.076;7.950;2023-06-14T06:48:11;97051.81;;;15.96;59.63
55032;BME280;40928;51.076;7.950;2023-06-14T06:50:37;97057.19;;;16.02;60.03
55032;BME280;40928;51.076;7.950;2023-06-14T06:53:02;97060.91;;;16.06;59.75
55032;BME280;40928;51.076;7.950;2023-06-14T06:55:28;97063.06;;;16.14;59.36
55032;BME280;40928;51.076;7.950;2023-06-14T06:57:53;97062.50;;;16.22;59.20
55032;BME280;40928;51.076;7.950;2023-06-14T07:00:20;97073.22;;;16.38;59.05
55032;BME280;40928;51.076;7.950;2023-06-14T07:02:46;97065.66;;;16.45;58.23
55032;BME280;40928;51.076;7.950;2023-06-14T07:05:11;97069.44;;;16.49;57.45
55032;BME280;40928;51.076;7.950;2023-06-14T07:07:37;97059.69;;;16.53;56.42
55032;BME280;40928;51.076;7.950;2023-06-14T07:10:04;97069.59;;;16.73;56.08
55032;BME280;40928;51.076;7.950;2023-06-14T07:12:33;97064.16;;;16.79;54.96
55032;BME280;40928;51.076;7.950;2023-06-14T07:15:01;97063.31;;;16.83;54.90
55032;BME280;40928;51.076;7.950;2023-06-14T07:17:28;97068.69;;;16.88;54.37
55032;BME280;40928;51.076;7.950;2023-06-14T07:19:53;97067.59;;;16.95;54.27
55032;BME280;40928;51.076;7.950;2023-06-14T07:22:19;97069.44;;;17.04;53.78
55032;BME280;40928;51.076;7.950;2023-06-14T07:24:45;97076.41;;;17.11;54.30
55032;BME280;40928;51.076;7.950;2023-06-14T07:27:10;97067.75;;;17.14;52.89
55032;BME280;40928;51.076;7.950;2023-06-14T07:29:38;97073.63;;;17.21;52.32
55032;BME280;40928;51.076;7.950;2023-06-14T07:32:04;97076.81;;;17.28;53.08
55032;BME280;40928;51.076;7.950;2023-06-14T07:34:30;97077.13;;;17.27;52.70
55032;BME280;40928;51.076;7.950;2023-06-14T07:36:55;97086.22;;;17.36;53.72
55032;BME280;40928;51.076;7.950;2023-06-14T07:39:21;97087.63;;;17.28;52.49
55032;BME280;40928;51.076;7.950;2023-06-14T07:41:47;97080.06;;;17.30;53.23
55032;BME280;40928;51.076;7.950;2023-06-14T07:44:12;97084.84;;;17.39;53.89
55032;BME280;40928;51.076;7.950;2023-06-14T07:46:38;97080.69;;;17.52;54.14
55032;BME280;40928;51.076;7.950;2023-06-14T07:49:04;97087.59;;;17.68;53.37
55032;BME280;40928;51.076;7.950;2023-06-14T07:51:30;97082.94;;;17.74;52.92
55032;BME280;40928;51.076;7.950;2023-06-14T07:53:55;97075.88;;;17.78;52.03
55032;BME280;40928;51.076;7.950;2023-06-14T07:56:21;97090.09;;;17.89;51.70
55032;BME280;40928;51.076;7.950;2023-06-14T07:58:48;97082.22;;;17.92;51.58
55032;BME280;40928;51.076;7.950;2023-06-14T08:01:14;97086.53;;;17.93;51.19
55032;BME280;40928;51.076;7.950;2023-06-14T08:03:40;97078.44;;;17.93;50.49
55032;BME280;40928;51.076;7.950;2023-06-14T08:06:06;97071.13;;;17.94;50.63
55032;BME280;40928;51.076;7.950;2023-06-14T08:08:32;97080.66;;;17.86;51.37
55032;BME280;40928;51.076;7.950;2023-06-14T08:10:58;97081.66;;;17.95;51.84
55032;BME280;40928;51.076;7.950;2023-06-14T08:13:23;97079.09;;;18.09;51.66
55032;BME280;40928;51.076;7.950;2023-06-14T08:15:49;97084.34;;;18.25;52.44
55032;BME280;40928;51.076;7.950;2023-06-14T08:18:16;97086.13;;;18.35;50.90
55032;BME280;40928;51.076;7.950;2023-06-14T08:20:42;97094.66;;;18.47;51.06
55032;BME280;40928;51.076;7.950;2023-06-14T08:23:07;97091.31;;;18.55;50.93
55032;BME280;40928;51.076;7.950;2023-06-14T08:25:34;97092.97;;;18.51;49.93
55032;BME280;40928;51.076;7.950;2023-06-14T08:28:00;97089.19;;;18.52;49.27
55032;BME280;40928;51.076;7.950;2023-06-14T08:30:26;97078.31;;;18.58;50.10
55032;BME280;40928;51.076;7.950;2023-06-14T08:32:51;97089.50;;;18.51;49.39
55032;BME280;40928;51.076;7.950;2023-06-14T08:35:17;97085.16;;;18.50;49.47
55032;BME280;40928;51.076;7.950;2023-06-14T08:37:45;97096.03;;;18.69;49.51
55032;BME280;40928;51.076;7.950;2023-06-14T08:40:22;97086.50;;;18.71;48.64
55032;BME280;40928;51.076;7.950;2023-06-14T08:42:50;97085.88;;;18.80;48.46
55032;BME280;40928;51.076;7.950;2023-06-14T08:45:17;97095.59;;;18.81;46.44
55032;BME280;40928;51.076;7.950;2023-06-14T08:47:43;97099.84;;;18.87;47.06
55032;BME280;40928;51.076;7.950;2023-06-14T08:50:11;97095.44;;;18.96;46.10
55032;BME280;40928;51.076;7.950;2023-06-14T08:52:38;97086.84;;;19.08;45.85
55032;BME280;40928;51.076;7.950;2023-06-14T08:55:11;97088.91;;;19.16;46.02
55032;BME280;40928;51.076;7.950;2023-06-14T08:57:37;97081.34;;;19.32;44.82
55032;BME280;40928;51.076;7.950;2023-06-14T09:00:06;97083.47;;;19.36;40.93
55032;BME280;40928;51.076;7.950;2023-06-14T09:02:38;97085.91;;;19.18;42.35
55032;BME280;40928;51.076;7.950;2023-06-14T09:05:10;97095.13;;;19.17;42.78
55032;BME280;40928;51.076;7.950;2023-06-14T09:07:44;97093.28;;;19.31;43.15
55032;BME280;40928;51.076;7.950;2023-06-14T09:10:14;97095.34;;;19.40;43.56
55032;BME280;40928;51.076;7.950;2023-06-14T09:12:40;97090.84;;;19.49;43.85
55032;BME280;40928;51.076;7.950;2023-06-14T09:15:07;97097.34;;;19.67;43.67
55032;BME280;40928;51.076;7.950;2023-06-14T09:17:34;97098.53;;;19.61;42.72
55032;BME280;40928;51.076;7.950;2023-06-14T09:20:05;97098.72;;;19.65;43.18
55032;BME280;40928;51.076;7.950;2023-06-14T09:22:34;97101.44;;;19.65;41.56
55032;BME280;40928;51.076;7.950;2023-06-14T09:25:01;97104.00;;;19.75;42.39
55032;BME280;40928;51.076;7.950;2023-06-14T09:27:27;97100.41;;;19.80;43.25
55032;BME280;40928;51.076;7.950;2023-06-14T09:30:10;97098.41;;;19.85;43.35
55032;BME280;40928;51.076;7.950;2023-06-14T09:32:39;97110.31;;;20.03;42.37
55032;BME280;40928;51.076;7.950;2023-06-14T09:35:10;97108.31;;;20.09;42.66
55032;BME280;40928;51.076;7.950;2023-06-14T09:37:35;97111.94;;;20.18;42.41
55032;BME280;40928;51.076;7.950;2023-06-14T09:40:04;97108.53;;;20.27;42.50
55032;BME280;40928;51.076;7.950;2023-06-14T09:42:33;97113.56;;;20.19;42.73
55032;BME280;40928;51.076;7.950;2023-06-14T09:45:02;97113.38;;;20.44;42.61
55032;BME280;40928;51.076;7.950;2023-06-14T09:47:30;97107.94;;;20.58;42.02
55032;BME280;40928;51.076;7.950;2023-06-14T09:49:59;97123.22;;;20.67;42.24
55032;BME280;40928;51.076;7.950;2023-06-14T09:52:27;97113.19;;;20.68;42.09
55032;BME280;40928;51.076;7.950;2023-06-14T09:54:58;97112.69;;;20.38;42.55
55032;BME280;40928;51.076;7.950;2023-06-14T09:57:28;97114.59;;;20.51;43.33
55032;BME280;40928;51.076;7.950;2023-06-14T09:59:59;97115.19;;;20.62;41.73
55032;BME280;40928;51.076;7.950;2023-06-14T10:02:38;97114.50;;;20.84;40.85
55032;BME280;40928;51.076;7.950;2023-06-14T10:05:09;97121.63;;;20.80;40.28
55032;BME280;40928;51.076;7.950;2023-06-14T10:07:48;97117.50;;;20.97;40.87
55032;BME280;40928;51.076;7.950;2023-06-14T10:10:19;97125.31;;;21.12;40.04
55032;BME280;40928;51.076;7.950;2023-06-14T10:12:45;97128.00;;;21.12;39.67
55032;BME280;40928;51.076;7.950;2023-06-14T10:15:32;97136.06;;;21.18;39.79
55032;BME280;40928;51.076;7.950;2023-06-14T10:18:13;97137.84;;;21.22;40.02
55032;BME280;40928;51.076;7.950;2023-06-14T10:21:33;97134.13;;;21.55;39.04
55032;BME280;40928;51.076;7.950;2023-06-14T10:24:07;97135.31;;;21.63;39.08
55032;BME280;40928;51.076;7.950;2023-06-14T10:26:33;97112.97;;;21.66;38.75
55032;BME280;40928;51.076;7.950;2023-06-14T10:29:08;97132.84;;;21.75;38.74
55032;BME280;40928;51.076;7.950;2023-06-14T10:31:47;97127.97;;;21.86;38.64
55032;BME280;40928;51.076;7.950;2023-06-14T10:34:23;97119.94;;;21.81;38.76
55032;BME280;40928;51.076;7.950;2023-06-14T10:37:12;97120.19;;;21.70;38.48
55032;BME280;40928;51.076;7.950;2023-06-14T10:39:42;97139.22;;;21.70;38.45
55032;BME280;40928;51.076;7.950;2023-06-14T10:42:10;97125.47;;;21.67;38.29
55032;BME280;40928;51.076;7.950;2023-06-14T10:44:39;97122.66;;;21.58;39.07
55032;BME280;40928;51.076;7.950;2023-06-14T10:47:21;97125.53;;;21.75;38.81
55032;BME280;40928;51.076;7.950;2023-06-14T10:49:53;97135.63;;;21.84;38.81
55032;BME280;40928;51.076;7.950;2023-06-14T10:52:24;97130.06;;;21.89;38.59
55032;BME280;40928;51.076;7.950;2023-06-14T10:57:43;97140.50;;;21.73;38.71
55032;BME280;40928;51.076;7.950;2023-06-14T11:00:20;97126.06;;;21.86;38.47
55032;BME280;40928;51.076;7.950;2023-06-14T11:05:41;97126.19;;;21.81;38.77
55032;BME280;40928;51.076;7.950;2023-06-14T11:11:06;97122.47;;;22.31;38.11
55032;BME280;40928;51.076;7.950;2023-06-14T11:13:31;97130.06;;;22.43;38.36
55032;BME280;40928;51.076;7.950;2023-06-14T11:16:00;97135.38;;;22.48;37.83
55032;BME280;40928;51.076;7.950;2023-06-14T11:18:29;97133.00;;;22.24;36.70
55032;BME280;40928;51.076;7.950;2023-06-14T11:20:55;97131.03;;;22.16;37.45
55032;BME280;40928;51.076;7.950;2023-06-14T11:23:28;97130.53;;;22.14;37.58
55032;BME280;40928;51.076;7.950;2023-06-14T11:25:54;97128.88;;;22.35;37.25
55032;BME280;40928;51.076;7.950;2023-06-14T11:28:20;97140.16;;;22.51;37.09
55032;BME280;40928;51.076;7.950;2023-06-14T11:30:48;97136.03;;;22.54;36.30
55032;BME280;40928;51.076;7.950;2023-06-14T11:33:19;97126.44;;;22.57;37.08
55032;BME280;40928;51.076;7.950;2023-06-14T11:35:46;97131.13;;;22.65;36.74
55032;BME280;40928;51.076;7.950;2023-06-14T11:38:12;97126.34;;;22.71;37.39
55032;BME280;40928;51.076;7.950;2023-06-14T11:40:40;97134.53;;;22.79;36.76
55032;BME280;40928;51.076;7.950;2023-06-14T11:43:07;97131.13;;;22.65;36.78
55032;BME280;40928;51.076;7.950;2023-06-14T11:45:32;97132.88;;;22.61;36.52
55032;BME280;40928;51.076;7.950;2023-06-14T11:47:58;97129.81;;;22.62;37.25
55032;BME280;40928;51.076;7.950;2023-06-14T11:50:26;97135.41;;;22.66;38.02
55032;BME280;40928;51.076;7.950;2023-06-14T11:55:20;97134.22;;;22.90;37.08
55032;BME280;40928;51.076;7.950;2023-06-14T11:57:47;97129.78;;;23.03;36.35
55032;BME280;40928;51.076;7.950;2023-06-14T12:00:23;97134.63;;;23.23;36.15
55032;BME280;40928;51.076;7.950;2023-06-14T12:02:55;97129.19;;;23.32;36.24
55032;BME280;40928;51.076;7.950;2023-06-14T12:05:24;97123.91;;;23.27;35.35
55032;BME280;40928;51.076;7.950;2023-06-14T12:08:02;97124.38;;;23.47;36.50
55032;BME280;40928;51.076;7.950;2023-06-14T12:10:41;97129.19;;;23.50;35.88
55032;BME280;40928;51.076;7.950;2023-06-14T12:13:12;97125.97;;;23.39;36.39
55032;BME280;40928;51.076;7.950;2023-06-14T12:15:39;97141.03;;;23.27;35.85
55032;BME280;40928;51.076;7.950;2023-06-14T12:18:06;97133.63;;;23.10;35.97
55032;BME280;40928;51.076;7.950;2023-06-14T12:20:34;97133.78;;;23.05;36.14
55032;BME280;40928;51.076;7.950;2023-06-14T12:23:04;97129.09;;;22.88;36.16
55032;BME280;40928;51.076;7.950;2023-06-14T12:25:35;97124.78;;;22.96;35.72
55032;BME280;40928;51.076;7.950;2023-06-14T12:28:10;97126.88;;;23.08;36.52
55032;BME280;40928;51.076;7.950;2023-06-14T12:30:38;97124.13;;;22.99;36.54
55032;BME280;40928;51.076;7.950;2023-06-14T12:33:05;97129.56;;;22.90;36.84
55032;BME280;40928;51.076;7.950;2023-06-14T12:35:33;97134.19;;;22.81;36.89
55032;BME280;40928;51.076;7.950;2023-06-14T12:38:18;97129.25;;;22.83;37.42
55032;BME280;40928;51.076;7.950;2023-06-14T12:40:44;97134.38;;;22.93;36.45
55032;BME280;40928;51.076;7.950;2023-06-14T12:43:10;97120.59;;;22.90;36.91
55032;BME280;40928;51.076;7.950;2023-06-14T12:45:37;97124.94;;;22.91;37.01
55032;BME280;40928;51.076;7.950;2023-06-14T12:48:05;97133.72;;;22.79;37.35
55032;BME280;40928;51.076;7.950;2023-06-14T12:50:32;97133.38;;;22.72;36.62
55032;BME280;40928;51.076;7.950;2023-06-14T12:52:58;97127.09;;;22.62;36.43
55032;BME280;40928;51.076;7.950;2023-06-14T12:55:25;97132.47;;;22.45;37.80
55032;BME280;40928;51.076;7.950;2023-06-14T12:57:50;97131.56;;;22.58;37.59
55032;BME280;40928;51.076;7.950;2023-06-14T13:00:18;97132.22;;;22.55;36.87
55032;BME280;40928;51.076;7.950;2023-06-14T13:02:47;97124.38;;;22.62;36.99
55032;BME280;40928;51.076;7.950;2023-06-14T13:05:12;97138.81;;;22.72;37.65
55032;BME280;40928;51.076;7.950;2023-06-14T13:07:40;97130.81;;;22.75;37.12
55032;BME280;40928;51.076;7.950;2023-06-14T13:10:09;97131.81;;;22.79;37.55
55032;BME280;40928;51.076;7.950;2023-06-14T13:12:35;97130.97;;;22.70;36.63
55032;BME280;40928;51.076;7.950;2023-06-14T13:15:01;97129.19;;;22.65;37.34
55032;BME280;40928;51.076;7.950;2023-06-14T13:17:27;97126.94;;;22.59;36.92
55032;BME280;40928;51.076;7.950;2023-06-14T13:19:54;97134.13;;;22.63;37.02
55032;BME280;40928;51.076;7.950;2023-06-14T13:22:22;97139.91;;;22.62;36.49
55032;BME280;40928;51.076;7.950;2023-06-14T13:24:48;97136.44;;;22.79;36.21